sensor_id;sensor_type;location;lat;lon;timestamp;temperature;humidity
41838;DHT22;27511;52.042;5.178;2023-09-19T00:01:28;19.20;99.90
41838;DHT22;27511;52.042;5.178;2023-09-19T00:03:56;19.30;99.90
41838;DHT22;27511;52.042;5.178;2023-09-19T00:06:23;19.20;99.90
41838;DHT22;27511;52.042;5.178;2023-09-19T00:08:54;19.10;99.90
41838;DHT22;27511;52.042;5.178;2023-09-19T00:11:20;19.20;99.90
41838;DHT22;27511;52.042;5.178;2023-09-19T00:13:48;19.20;99.90
41838;DHT22;27511;52.042;5.178;2023-09-19T00:16:15;19.10;99.90
41838;DHT22;27511;52.042;5.178;2023-09-19T00:18:40;19.10;99.90
41838;DHT22;27511;52.042;5.178;2023-09-19T00:21:06;19.20;99.90
41838;DHT22;27511;52.042;5.178;2023-09-19T00:23:33;19.10;99.90
41838;DHT22;27511;52.042;5.178;2023-09-19T00:26:01;18.90;99.90
41838;DHT22;27511;52.042;5.178;2023-09-19T00:28:27;19.10;99.90
41838;DHT22;27511;52.042;5.178;2023-09-19T00:30:54;19.10;99.90
41838;DHT22;27511;52.042;5.178;2023-09-19T00:33:21;19.10;99.90
41838;DHT22;27511;52.042;5.178;2023-09-19T00:35:57;19.20;99.90
41838;DHT22;27511;52.042;5.178;2023-09-19T00:38:23;19.10;99.90
41838;DHT22;27511;52.042;5.178;2023-09-19T00:40:53;19.20;99.90
41838;DHT22;27511;52.042;5.178;2023-09-19T00:43:20;19.20;99.90
41838;DHT22;27511;52.042;5.178;2023-09-19T00:45:48;19.10;99.90
41838;DHT22;27511;52.042;5.178;2023-09-19T00:48:15;19.20;99.90
41838;DHT22;27511;52.042;5.178;2023-09-19T00:50:46;19.20;99.90
41838;DHT22;27511;52.042;5.178;2023-09-19T00:53:17;19.20;99.90
41838;DHT22;27511;52.042;5.178;2023-09-19T00:55:44;19.30;99.90
41838;DHT22;27511;52.042;5.178;2023-09-19T00:58:11;19.30;99.90
41838;DHT22;27511;52.042;5.178;2023-09-19T01:00:37;19.10;99.90
41838;DHT22;27511;52.042;5.178;2023-09-19T01:03:03;19.20;99.90
41838;DHT22;27511;52.042;5.178;2023-09-19T01:05:30;19.20;99.90
41838;DHT22;27511;52.042;5.178;2023-09-19T01:07:55;19.20;99.90
41838;DHT22;27511;52.042;5.178;2023-09-19T01:10:22;19.20;99.90
41838;DHT22;27511;52.042;5.178;2023-09-19T01:15:32;19.20;99.90
41838;DHT22;27511;52.042;5.178;2023-09-19T01:27:17;19.20;99.90
41838;DHT22;27511;52.042;5.178;2023-09-19T01:29:52;19.20;99.90
41838;DHT22;27511;52.042;5.178;2023-09-19T01:32:21;19.10;99.90
41838;DHT22;27511;52.042;5.178;2023-09-19T01:34:54;19.10;99.90
41838;DHT22;27511;52.042;5.178;2023-09-19T01:37:22;19.00;99.90
41838;DHT22;27511;52.042;5.178;2023-09-19T01:39:55;19.00;99.90
41838;DHT22;27511;52.042;5.178;2023-09-19T01:42:24;19.00;99.90
41838;DHT22;27511;52.042;5.178;2023-09-19T01:45:02;19.00;99.90
41838;DHT22;27511;52.042;5.178;2023-09-19T01:47:35;19.10;99.90
41838;DHT22;27511;52.042;5.178;2023-09-19T01:52:54;18.90;99.90
41838;DHT22;27511;52.042;5.178;2023-09-19T01:55:20;18.90;99.90
41838;DHT22;27511;52.042;5.178;2023-09-19T01:58:16;18.90;99.90
41838;DHT22;27511;52.042;5.178;2023-09-19T02:00:44;18.90;99.90
41838;DHT22;27511;52.042;5.178;2023-09-19T02:03:11;18.80;99.90
41838;DHT22;27511;52.042;5.178;2023-09-19T02:05:37;18.70;99.90
41838;DHT22;27511;52.042;5.178;2023-09-19T02:08:04;18.70;99.90
41838;DHT22;27511;52.042;5.178;2023-09-19T02:10:30;18.70;99.90
41838;DHT22;27511;52.042;5.178;2023-09-19T02:12:55;18.60;99.90
41838;DHT22;27511;52.042;5.178;2023-09-19T02:15:22;18.60;99.90
41838;DHT22;27511;52.042;5.178;2023-09-19T02:17:47;18.60;99.90
41838;DHT22;27511;52.042;5.178;2023-09-19T02:20:13;18.50;99.90
41838;DHT22;27511;52.042;5.178;2023-09-19T02:22:42;18.40;99.90
41838;DHT22;27511;52.042;5.178;2023-09-19T02:25:08;18.50;99.90
41838;DHT22;27511;52.042;5.178;2023-09-19T02:27:34;18.50;99.90
41838;DHT22;27511;52.042;5.178;2023-09-19T02:30:00;18.40;99.90
41838;DHT22;27511;52.042;5.178;2023-09-19T02:32:29;18.50;99.90
41838;DHT22;27511;52.042;5.178;2023-09-19T02:34:57;18.50;99.90
41838;DHT22;27511;52.042;5.178;2023-09-19T02:37:23;18.40;99.90
41838;DHT22;27511;52.042;5.178;2023-09-19T02:39:48;18.40;99.90
41838;DHT22;27511;52.042;5.178;2023-09-19T02:42:14;18.40;99.90
41838;DHT22;27511;52.042;5.178;2023-09-19T02:44:40;18.40;99.90
41838;DHT22;27511;52.042;5.178;2023-09-19T02:47:05;18.30;99.90
41838;DHT22;27511;52.042;5.178;2023-09-19T02:49:31;18.30;99.90
41838;DHT22;27511;52.042;5.178;2023-09-19T02:51:57;18.40;99.90
41838;DHT22;27511;52.042;5.178;2023-09-19T02:54:24;18.40;99.90
41838;DHT22;27511;52.042;5.178;2023-09-19T02:56:49;18.30;99.90
41838;DHT22;27511;52.042;5.178;2023-09-19T02:59:15;18.20;99.90
41838;DHT22;27511;52.042;5.178;2023-09-19T03:01:43;18.30;99.90
41838;DHT22;27511;52.042;5.178;2023-09-19T03:04:09;18.30;99.90
41838;DHT22;27511;52.042;5.178;2023-09-19T03:06:36;18.10;99.90
41838;DHT22;27511;52.042;5.178;2023-09-19T03:09:02;18.10;99.90
41838;DHT22;27511;52.042;5.178;2023-09-19T03:11:31;18.10;99.90
41838;DHT22;27511;52.042;5.178;2023-09-19T03:13:56;18.10;99.90
41838;DHT22;27511;52.042;5.178;2023-09-19T03:16:22;18.00;99.90
41838;DHT22;27511;52.042;5.178;2023-09-19T03:18:51;18.00;99.90
41838;DHT22;27511;52.042;5.178;2023-09-19T03:21:17;18.00;99.90
41838;DHT22;27511;52.042;5.178;2023-09-19T03:23:43;17.90;99.90
41838;DHT22;27511;52.042;5.178;2023-09-19T03:26:11;17.90;99.90
41838;DHT22;27511;52.042;5.178;2023-09-19T03:28:37;17.90;99.90
41838;DHT22;27511;52.042;5.178;2023-09-19T03:31:05;17.80;99.90
41838;DHT22;27511;52.042;5.178;2023-09-19T03:33:31;17.90;99.90
41838;DHT22;27511;52.042;5.178;2023-09-19T03:35:58;17.90;99.90
41838;DHT22;27511;52.042;5.178;2023-09-19T03:38:25;17.90;99.90
41838;DHT22;27511;52.042;5.178;2023-09-19T03:40:51;18.00;99.90
41838;DHT22;27511;52.042;5.178;2023-09-19T03:43:16;17.90;99.90
41838;DHT22;27511;52.042;5.178;2023-09-19T03:45:43;17.90;99.90
41838;DHT22;27511;52.042;5.178;2023-09-19T03:48:12;17.80;99.90
41838;DHT22;27511;52.042;5.178;2023-09-19T03:50:37;17.80;99.90
41838;DHT22;27511;52.042;5.178;2023-09-19T03:53:03;17.90;99.90
41838;DHT22;27511;52.042;5.178;2023-09-19T03:55:29;17.80;99.90
41838;DHT22;27511;52.042;5.178;2023-09-19T03:57:56;17.70;99.90
41838;DHT22;27511;52.042;5.178;2023-09-19T04:00:22;17.60;99.90
41838;DHT22;27511;52.042;5.178;2023-09-19T04:02:51;17.60;99.90
41838;DHT22;27511;52.042;5.178;2023-09-19T04:05:16;17.60;99.90
41838;DHT22;27511;52.042;5.178;2023-09-19T04:07:42;17.50;99.90
41838;DHT22;27511;52.042;5.178;2023-09-19T04:10:08;17.50;99.90
41838;DHT22;27511;52.042;5.178;2023-09-19T04:12:35;17.50;99.90
41838;DHT22;27511;52.042;5.178;2023-09-19T04:15:01;17.50;99.90
41838;DHT22;27511;52.042;5.178;2023-09-19T04:17:27;17.50;99.90
41838;DHT22;27511;52.042;5.178;2023-09-19T04:19:53;17.40;99.90
41838;DHT22;27511;52.042;5.178;2023-09-19T04:22:19;17.50;99.90
41838;DHT22;27511;52.042;5.178;2023-09-19T04:24:44;17.50;99.90
41838;DHT22;27511;52.042;5.178;2023-09-19T04:27:10;17.50;99.90
41838;DHT22;27511;52.042;5.178;2023-09-19T04:29:37;17.50;99.90
41838;DHT22;27511;52.042;5.178;2023-09-19T04:32:05;17.60;99.90
41838;DHT22;27511;52.042;5.178;2023-09-19T04:34:31;17.60;99.90
41838;DHT22;27511;52.042;5.178;2023-09-19T04:36:57;17.60;99.90
41838;DHT22;27511;52.042;5.178;2023-09-19T04:39:26;17.50;99.90
41838;DHT22;27511;52.042;5.178;2023-09-19T04:41:52;17.50;99.90
41838;DHT22;27511;52.042;5.178;2023-09-19T04:44:18;17.50;99.90
41838;DHT22;27511;52.042;5.178;2023-09-19T04:46:44;17.50;99.90
41838;DHT22;27511;52.042;5.178;2023-09-19T04:49:09;17.50;99.90
41838;DHT22;27511;52.042;5.178;2023-09-19T04:51:35;17.50;99.90
41838;DHT22;27511;52.042;5.178;2023-09-19T04:54:01;17.50;99.90
41838;DHT22;27511;52.042;5.178;2023-09-19T04:56:28;17.50;99.90
41838;DHT22;27511;52.042;5.178;2023-09-19T04:58:54;17.40;99.90
41838;DHT22;27511;52.042;5.178;2023-09-19T05:01:19;17.50;99.90
41838;DHT22;27511;52.042;5.178;2023-09-19T05:03:48;17.40;99.90
41838;DHT22;27511;52.042;5.178;2023-09-19T05:06:18;17.50;99.90
41838;DHT22;27511;52.042;5.178;2023-09-19T05:08:43;17.40;99.90
41838;DHT22;27511;52.042;5.178;2023-09-19T05:11:09;17.30;99.90
41838;DHT22;27511;52.042;5.178;2023-09-19T05:13:34;17.30;99.90
41838;DHT22;27511;52.042;5.178;2023-09-19T05:16:00;17.30;99.90
41838;DHT22;27511;52.042;5.178;2023-09-19T05:18:29;17.30;99.90
41838;DHT22;27511;52.042;5.178;2023-09-19T05:20:55;17.30;99.90
41838;DHT22;27511;52.042;5.178;2023-09-19T05:23:21;17.30;99.90
41838;DHT22;27511;52.042;5.178;2023-09-19T05:25:47;17.30;99.90
41838;DHT22;27511;52.042;5.178;2023-09-19T05:28:12;17.30;99.90
41838;DHT22;27511;52.042;5.178;2023-09-19T05:30:40;17.30;99.90
41838;DHT22;27511;52.042;5.178;2023-09-19T05:33:06;17.40;99.90
41838;DHT22;27511;52.042;5.178;2023-09-19T05:35:33;17.30;99.90
41838;DHT22;27511;52.042;5.178;2023-09-19T05:37:59;17.40;99.90
41838;DHT22;27511;52.042;5.178;2023-09-19T05:40:25;17.30;99.90
41838;DHT22;27511;52.042;5.178;2023-09-19T05:42:51;17.20;99.90
41838;DHT22;27511;52.042;5.178;2023-09-19T05:45:17;17.20;99.90
41838;DHT22;27511;52.042;5.178;2023-09-19T05:47:48;17.30;99.90
41838;DHT22;27511;52.042;5.178;2023-09-19T05:50:14;17.40;99.90
41838;DHT22;27511;52.042;5.178;2023-09-19T05:52:41;17.50;99.90
41838;DHT22;27511;52.042;5.178;2023-09-19T05:55:08;17.40;99.90
41838;DHT22;27511;52.042;5.178;2023-09-19T05:57:37;17.40;99.90
41838;DHT22;27511;52.042;5.178;2023-09-19T06:00:08;17.40;99.90
41838;DHT22;27511;52.042;5.178;2023-09-19T06:02:39;17.40;99.90
41838;DHT22;27511;52.042;5.178;2023-09-19T06:05:06;17.40;99.90
41838;DHT22;27511;52.042;5.178;2023-09-19T06:07:32;17.50;99.90
41838;DHT22;27511;52.042;5.178;2023-09-19T06:10:03;17.40;99.90
41838;DHT22;27511;52.042;5.178;2023-09-19T06:12:31;17.50;99.90
41838;DHT22;27511;52.042;5.178;2023-09-19T06:14:59;17.60;99.90
41838;DHT22;27511;52.042;5.178;2023-09-19T06:17:25;17.60;99.90
41838;DHT22;27511;52.042;5.178;2023-09-19T06:19:52;17.60;99.90
41838;DHT22;27511;52.042;5.178;2023-09-19T06:22:17;17.60;99.90
41838;DHT22;27511;52.042;5.178;2023-09-19T06:24:44;17.60;99.90
41838;DHT22;27511;52.042;5.178;2023-09-19T06:27:10;17.70;99.90
41838;DHT22;27511;52.042;5.178;2023-09-19T06:29:35;17.70;99.90
41838;DHT22;27511;52.042;5.178;2023-09-19T06:32:10;17.60;99.90
41838;DHT22;27511;52.042;5.178;2023-09-19T06:34:36;17.60;99.90
41838;DHT22;27511;52.042;5.178;2023-09-19T06:37:01;17.70;99.90
41838;DHT22;27511;52.042;5.178;2023-09-19T06:39:28;17.60;99.90
41838;DHT22;27511;52.042;5.178;2023-09-19T06:41:54;17.70;99.90
41838;DHT22;27511;52.042;5.178;2023-09-19T06:44:20;17.70;99.90
41838;DHT22;27511;52.042;5.178;2023-09-19T06:46:50;17.70;99.90
41838;DHT22;27511;52.042;5.178;2023-09-19T06:49:17;17.70;99.90
41838;DHT22;27511;52.042;5.178;2023-09-19T06:51:43;17.80;99.90
41838;DHT22;27511;52.042;5.178;2023-09-19T06:54:09;17.80;99.90
41838;DHT22;27511;52.042;5.178;2023-09-19T06:56:35;17.80;99.90
41838;DHT22;27511;52.042;5.178;2023-09-19T06:59:00;17.90;99.90
41838;DHT22;27511;52.042;5.178;2023-09-19T07:01:28;17.90;99.90
41838;DHT22;27511;52.042;5.178;2023-09-19T07:03:53;18.00;99.90
41838;DHT22;27511;52.042;5.178;2023-09-19T07:06:20;17.80;99.90
41838;DHT22;27511;52.042;5.178;2023-09-19T07:08:45;17.80;99.90
41838;DHT22;27511;52.042;5.178;2023-09-19T07:11:11;17.80;99.90
41838;DHT22;27511;52.042;5.178;2023-09-19T07:13:38;17.70;99.90
41838;DHT22;27511;52.042;5.178;2023-09-19T07:16:04;17.90;99.90
41838;DHT22;27511;52.042;5.178;2023-09-19T07:18:30;17.90;99.90
41838;DHT22;27511;52.042;5.178;2023-09-19T07:20:57;18.00;99.90
41838;DHT22;27511;52.042;5.178;2023-09-19T07:23:31;18.00;99.90
41838;DHT22;27511;52.042;5.178;2023-09-19T07:26:03;17.90;99.90
41838;DHT22;27511;52.042;5.178;2023-09-19T07:28:31;17.90;99.90
41838;DHT22;27511;52.042;5.178;2023-09-19T07:31:02;17.80;99.90
41838;DHT22;27511;52.042;5.178;2023-09-19T07:33:28;17.90;99.90
41838;DHT22;27511;52.042;5.178;2023-09-19T07:35:54;17.90;99.90
41838;DHT22;27511;52.042;5.178;2023-09-19T07:38:20;17.90;99.90
41838;DHT22;27511;52.042;5.178;2023-09-19T07:40:46;17.90;99.90
41838;DHT22;27511;52.042;5.178;2023-09-19T07:43:12;17.90;99.90
41838;DHT22;27511;52.042;5.178;2023-09-19T07:45:38;17.90;99.90
41838;DHT22;27511;52.042;5.178;2023-09-19T07:48:03;18.10;99.90
41838;DHT22;27511;52.042;5.178;2023-09-19T07:50:42;18.20;99.90
41838;DHT22;27511;52.042;5.178;2023-09-19T07:53:09;18.20;99.90
41838;DHT22;27511;52.042;5.178;2023-09-19T07:55:34;18.10;99.90
41838;DHT22;27511;52.042;5.178;2023-09-19T07:58:00;18.20;99.90
41838;DHT22;27511;52.042;5.178;2023-09-19T08:00:26;18.30;99.90
41838;DHT22;27511;52.042;5.178;2023-09-19T08:02:51;18.20;99.90
41838;DHT22;27511;52.042;5.178;2023-09-19T08:05:17;18.30;99.90
41838;DHT22;27511;52.042;5.178;2023-09-19T08:07:45;18.40;99.90
41838;DHT22;27511;52.042;5.178;2023-09-19T08:10:14;18.50;99.90
41838;DHT22;27511;52.042;5.178;2023-09-19T08:12:42;18.40;99.90
41838;DHT22;27511;52.042;5.178;2023-09-19T08:15:17;18.50;99.90
41838;DHT22;27511;52.042;5.178;2023-09-19T08:17:45;18.40;99.90
41838;DHT22;27511;52.042;5.178;2023-09-19T08:20:11;18.40;99.90
41838;DHT22;27511;52.042;5.178;2023-09-19T08:22:51;18.50;99.90
41838;DHT22;27511;52.042;5.178;2023-09-19T08:25:20;18.40;99.90
41838;DHT22;27511;52.042;5.178;2023-09-19T08:27:48;18.40;99.90
41838;DHT22;27511;52.042;5.178;2023-09-19T08:30:19;18.50;99.90
41838;DHT22;27511;52.042;5.178;2023-09-19T08:32:56;18.60;99.90
41838;DHT22;27511;52.042;5.178;2023-09-19T08:35:23;18.60;99.90
41838;DHT22;27511;52.042;5.178;2023-09-19T08:37:49;18.70;99.90
41838;DHT22;27511;52.042;5.178;2023-09-19T08:40:14;18.70;99.90
41838;DHT22;27511;52.042;5.178;2023-09-19T08:42:51;18.70;99.90
41838;DHT22;27511;52.042;5.178;2023-09-19T08:45:17;18.80;99.90
41838;DHT22;27511;52.042;5.178;2023-09-19T08:50:31;18.90;99.90
41838;DHT22;27511;52.042;5.178;2023-09-19T08:53:00;19.00;99.90
41838;DHT22;27511;52.042;5.178;2023-09-19T08:55:28;19.00;99.90
41838;DHT22;27511;52.042;5.178;2023-09-19T08:58:03;18.80;99.90
41838;DHT22;27511;52.042;5.178;2023-09-19T09:00:30;18.80;99.90
41838;DHT22;27511;52.042;5.178;2023-09-19T09:02:57;18.80;99.90
41838;DHT22;27511;52.042;5.178;2023-09-19T09:05:24;18.90;99.90
41838;DHT22;27511;52.042;5.178;2023-09-19T09:07:50;19.00;99.90
41838;DHT22;27511;52.042;5.178;2023-09-19T09:10:22;19.10;99.90
41838;DHT22;27511;52.042;5.178;2023-09-19T09:12:52;19.20;99.90
41838;DHT22;27511;52.042;5.178;2023-09-19T09:15:22;19.10;99.90
41838;DHT22;27511;52.042;5.178;2023-09-19T09:17:49;19.10;99.90
41838;DHT22;27511;52.042;5.178;2023-09-19T09:20:16;19.30;99.90
41838;DHT22;27511;52.042;5.178;2023-09-19T09:22:54;19.30;99.90
41838;DHT22;27511;52.042;5.178;2023-09-19T09:25:21;19.40;99.90
41838;DHT22;27511;52.042;5.178;2023-09-19T09:28:00;19.40;99.90
41838;DHT22;27511;52.042;5.178;2023-09-19T09:30:36;19.40;99.90
41838;DHT22;27511;52.042;5.178;2023-09-19T09:33:10;19.40;99.90
41838;DHT22;27511;52.042;5.178;2023-09-19T09:38:18;19.40;99.90
41838;DHT22;27511;52.042;5.178;2023-09-19T09:40:52;19.60;99.90
41838;DHT22;27511;52.042;5.178;2023-09-19T09:43:33;19.70;99.90
41838;DHT22;27511;52.042;5.178;2023-09-19T09:46:07;19.90;99.90
41838;DHT22;27511;52.042;5.178;2023-09-19T09:49:11;19.80;99.90
41838;DHT22;27511;52.042;5.178;2023-09-19T09:51:45;19.90;99.90
41838;DHT22;27511;52.042;5.178;2023-09-19T09:54:23;19.90;99.90
41838;DHT22;27511;52.042;5.178;2023-09-19T09:57:00;20.00;99.90
41838;DHT22;27511;52.042;5.178;2023-09-19T09:59:58;20.00;99.90
41838;DHT22;27511;52.042;5.178;2023-09-19T10:02:28;20.10;99.90
41838;DHT22;27511;52.042;5.178;2023-09-19T10:04:58;20.10;99.90
41838;DHT22;27511;52.042;5.178;2023-09-19T10:07:39;19.90;99.90
41838;DHT22;27511;52.042;5.178;2023-09-19T10:10:07;19.90;99.90
41838;DHT22;27511;52.042;5.178;2023-09-19T10:12:45;20.10;99.90
41838;DHT22;27511;52.042;5.178;2023-09-19T10:15:14;20.20;99.90
41838;DHT22;27511;52.042;5.178;2023-09-19T10:17:45;20.10;99.90
41838;DHT22;27511;52.042;5.178;2023-09-19T10:20:16;20.10;99.90
41838;DHT22;27511;52.042;5.178;2023-09-19T10:22:57;20.10;99.90
41838;DHT22;27511;52.042;5.178;2023-09-19T10:25:28;20.10;99.90
41838;DHT22;27511;52.042;5.178;2023-09-19T10:27:54;20.20;99.90
41838;DHT22;27511;52.042;5.178;2023-09-19T10:30:22;20.40;99.90
41838;DHT22;27511;52.042;5.178;2023-09-19T10:33:00;20.40;99.90
41838;DHT22;27511;52.042;5.178;2023-09-19T10:35:26;20.50;99.90
41838;DHT22;27511;52.042;5.178;2023-09-19T10:37:54;20.60;99.90
41838;DHT22;27511;52.042;5.178;2023-09-19T10:40:22;20.50;99.90
41838;DHT22;27511;52.042;5.178;2023-09-19T10:43:00;20.50;99.90
41838;DHT22;27511;52.042;5.178;2023-09-19T10:45:34;20.60;99.90
41838;DHT22;27511;52.042;5.178;2023-09-19T10:48:00;20.70;99.90
41838;DHT22;27511;52.042;5.178;2023-09-19T10:50:34;20.80;99.90
41838;DHT22;27511;52.042;5.178;2023-09-19T10:53:04;20.80;99.90
41838;DHT22;27511;52.042;5.178;2023-09-19T10:55:33;20.90;99.90
41838;DHT22;27511;52.042;5.178;2023-09-19T10:58:01;20.80;99.90
41838;DHT22;27511;52.042;5.178;2023-09-19T11:00:30;20.90;99.90
41838;DHT22;27511;52.042;5.178;2023-09-19T11:05:41;21.10;99.90
41838;DHT22;27511;52.042;5.178;2023-09-19T11:08:07;21.20;99.90
41838;DHT22;27511;52.042;5.178;2023-09-19T11:10:51;21.30;99.90
41838;DHT22;27511;52.042;5.178;2023-09-19T11:13:24;21.40;99.90
41838;DHT22;27511;52.042;5.178;2023-09-19T11:26:45;21.80;99.90
41838;DHT22;27511;52.042;5.178;2023-09-19T11:29:30;21.50;99.90
41838;DHT22;27511;52.042;5.178;2023-09-19T11:31:57;21.40;99.90
41838;DHT22;27511;52.042;5.178;2023-09-19T11:37:59;21.40;99.90
41838;DHT22;27511;52.042;5.178;2023-09-19T11:40:09;21.50;99.90
41838;DHT22;27511;52.042;5.178;2023-09-19T11:42:47;21.50;99.90
41838;DHT22;27511;52.042;5.178;2023-09-19T11:48:24;21.40;99.90
41838;DHT22;27511;52.042;5.178;2023-09-19T11:50:53;21.30;99.90
41838;DHT22;27511;52.042;5.178;2023-09-19T11:53:19;21.50;99.90
41838;DHT22;27511;52.042;5.178;2023-09-19T11:55:45;21.20;99.90
41838;DHT22;27511;52.042;5.178;2023-09-19T11:58:15;21.20;99.90
41838;DHT22;27511;52.042;5.178;2023-09-19T12:00:43;21.20;99.90
41838;DHT22;27511;52.042;5.178;2023-09-19T12:03:11;21.30;99.90
41838;DHT22;27511;52.042;5.178;2023-09-19T12:05:37;21.30;99.90
41838;DHT22;27511;52.042;5.178;2023-09-19T12:08:04;21.30;99.90
41838;DHT22;27511;52.042;5.178;2023-09-19T12:10:33;21.30;99.90
41838;DHT22;27511;52.042;5.178;2023-09-19T12:12:58;21.40;99.90
41838;DHT22;27511;52.042;5.178;2023-09-19T12:15:26;21.40;99.90
41838;DHT22;27511;52.042;5.178;2023-09-19T12:17:54;21.40;99.90
41838;DHT22;27511;52.042;5.178;2023-09-19T12:20:20;21.30;99.90
41838;DHT22;27511;52.042;5.178;2023-09-19T12:22:46;21.30;99.90
41838;DHT22;27511;52.042;5.178;2023-09-19T12:25:13;21.40;99.90
41838;DHT22;27511;52.042;5.178;2023-09-19T12:27:45;21.20;99.90
41838;DHT22;27511;52.042;5.178;2023-09-19T12:30:27;21.30;99.90
41838;DHT22;27511;52.042;5.178;2023-09-19T12:32:53;21.50;99.90
41838;DHT22;27511;52.042;5.178;2023-09-19T12:35:29;21.40;99.90
41838;DHT22;27511;52.042;5.178;2023-09-19T12:38:02;21.30;99.90
41838;DHT22;27511;52.042;5.178;2023-09-19T12:40:29;21.20;99.90
41838;DHT22;27511;52.042;5.178;2023-09-19T12:42:59;21.20;99.90
41838;DHT22;27511;52.042;5.178;2023-09-19T12:45:25;21.20;99.90
41838;DHT22;27511;52.042;5.178;2023-09-19T12:48:19;21.20;99.90
41838;DHT22;27511;52.042;5.178;2023-09-19T12:51:10;21.20;99.90
41838;DHT22;27511;52.042;5.178;2023-09-19T12:53:42;21.10;99.90
41838;DHT22;27511;52.042;5.178;2023-09-19T12:56:13;21.00;99.90
41838;DHT22;27511;52.042;5.178;2023-09-19T13:01:24;20.90;99.90
41838;DHT22;27511;52.042;5.178;2023-09-19T13:06:52;20.80;99.90
41838;DHT22;27511;52.042;5.178;2023-09-19T13:09:20;20.80;99.90
41838;DHT22;27511;52.042;5.178;2023-09-19T13:11:46;20.90;99.90
41838;DHT22;27511;52.042;5.178;2023-09-19T13:14:23;20.90;99.90
41838;DHT22;27511;52.042;5.178;2023-09-19T13:17:03;20.80;99.90
41838;DHT22;27511;52.042;5.178;2023-09-19T13:25:04;20.90;99.90
41838;DHT22;27511;52.042;5.178;2023-09-19T13:27:32;21.00;99.90
41838;DHT22;27511;52.042;5.178;2023-09-19T13:29:58;21.10;99.90
41838;DHT22;27511;52.042;5.178;2023-09-19T13:32:24;21.30;99.90
41838;DHT22;27511;52.042;5.178;2023-09-19T13:34:49;21.40;99.90
41838;DHT22;27511;52.042;5.178;2023-09-19T13:37:16;21.40;99.90
41838;DHT22;27511;52.042;5.178;2023-09-19T13:39:43;21.30;99.90
41838;DHT22;27511;52.042;5.178;2023-09-19T13:42:13;21.30;99.90
41838;DHT22;27511;52.042;5.178;2023-09-19T13:44:38;21.40;99.90
41838;DHT22;27511;52.042;5.178;2023-09-19T13:47:06;21.50;99.90
41838;DHT22;27511;52.042;5.178;2023-09-19T13:49:35;21.50;99.90
41838;DHT22;27511;52.042;5.178;2023-09-19T13:52:01;21.50;99.90
41838;DHT22;27511;52.042;5.178;2023-09-19T13:54:30;21.50;99.90
41838;DHT22;27511;52.042;5.178;2023-09-19T13:56:56;21.50;99.90
41838;DHT22;27511;52.042;5.178;2023-09-19T13:59:21;21.50;99.90
41838;DHT22;27511;52.042;5.178;2023-09-19T14:01:49;21.30;99.90
41838;DHT22;27511;52.042;5.178;2023-09-19T14:04:15;21.30;99.90
41838;DHT22;27511;52.042;5.178;2023-09-19T14:06:43;21.40;99.90
41838;DHT22;27511;52.042;5.178;2023-09-19T14:09:11;21.20;99.90
41838;DHT22;27511;52.042;5.178;2023-09-19T14:11:37;21.20;99.90
41838;DHT22;27511;52.042;5.178;2023-09-19T14:14:02;21.20;99.90
41838;DHT22;27511;52.042;5.178;2023-09-19T14:16:30;21.40;99.90
41838;DHT22;27511;52.042;5.178;2023-09-19T14:18:56;21.50;99.90
41838;DHT22;27511;52.042;5.178;2023-09-19T14:21:23;21.40;99.90
41838;DHT22;27511;52.042;5.178;2023-09-19T14:23:51;21.40;99.90
41838;DHT22;27511;52.042;5.178;2023-09-19T14:26:17;21.20;99.90
41838;DHT22;27511;52.042;5.178;2023-09-19T14:28:43;21.30;99.90
41838;DHT22;27511;52.042;5.178;2023-09-19T14:31:11;21.40;99.90
41838;DHT22;27511;52.042;5.178;2023-09-19T14:33:37;21.40;99.90
41838;DHT22;27511;52.042;5.178;2023-09-19T14:36:08;21.40;99.90
41838;DHT22;27511;52.042;5.178;2023-09-19T14:38:36;21.20;99.90
41838;DHT22;27511;52.042;5.178;2023-09-19T14:41:03;20.90;99.90
41838;DHT22;27511;52.042;5.178;2023-09-19T14:43:29;21.00;99.90
41838;DHT22;27511;52.042;5.178;2023-09-19T14:45:56;21.00;99.90
41838;DHT22;27511;52.042;5.178;2023-09-19T14:48:23;21.10;99.90
41838;DHT22;27511;52.042;5.178;2023-09-19T14:50:51;21.10;99.90
41838;DHT22;27511;52.042;5.178;2023-09-19T14:53:17;21.10;99.90
41838;DHT22;27511;52.042;5.178;2023-09-19T14:55:43;21.10;99.90
41838;DHT22;27511;52.042;5.178;2023-09-19T14:58:10;21.00;99.90
41838;DHT22;27511;52.042;5.178;2023-09-19T15:00:37;21.10;99.90
41838;DHT22;27511;52.042;5.178;2023-09-19T15:03:03;20.90;99.90
41838;DHT22;27511;52.042;5.178;2023-09-19T15:05:29;20.90;99.90
41838;DHT22;27511;52.042;5.178;2023-09-19T15:07:55;20.90;99.90
41838;DHT22;27511;52.042;5.178;2023-09-19T15:10:22;21.00;99.90
41838;DHT22;27511;52.042;5.178;2023-09-19T15:12:48;20.90;99.90
41838;DHT22;27511;52.042;5.178;2023-09-19T15:15:13;21.10;99.90
41838;DHT22;27511;52.042;5.178;2023-09-19T15:17:39;21.10;99.90
41838;DHT22;27511;52.042;5.178;2023-09-19T15:20:06;21.20;99.90
41838;DHT22;27511;52.042;5.178;2023-09-19T15:22:33;21.30;99.90
41838;DHT22;27511;52.042;5.178;2023-09-19T15:25:00;21.30;99.90
41838;DHT22;27511;52.042;5.178;2023-09-19T15:27:27;21.20;99.90
41838;DHT22;27511;52.042;5.178;2023-09-19T15:29:53;21.30;99.90
41838;DHT22;27511;52.042;5.178;2023-09-19T15:32:18;21.50;99.90
41838;DHT22;27511;52.042;5.178;2023-09-19T15:34:44;21.50;99.90
41838;DHT22;27511;52.042;5.178;2023-09-19T15:37:09;21.50;99.90
41838;DHT22;27511;52.042;5.178;2023-09-19T15:39:35;21.50;99.90
41838;DHT22;27511;52.042;5.178;2023-09-19T15:42:02;21.50;99.90
41838;DHT22;27511;52.042;5.178;2023-09-19T15:44:28;21.40;99.90
41838;DHT22;27511;52.042;5.178;2023-09-19T15:46:54;21.30;99.90
41838;DHT22;27511;52.042;5.178;2023-09-19T15:49:19;21.20;99.90
41838;DHT22;27511;52.042;5.178;2023-09-19T15:51:46;21.30;99.90
41838;DHT22;27511;52.042;5.178;2023-09-19T15:54:13;21.20;99.90
41838;DHT22;27511;52.042;5.178;2023-09-19T15:56:42;21.10;99.90
41838;DHT22;27511;52.042;5.178;2023-09-19T15:59:08;21.20;99.90
41838;DHT22;27511;52.042;5.178;2023-09-19T16:01:35;21.10;99.90
41838;DHT22;27511;52.042;5.178;2023-09-19T16:04:00;21.10;99.90
41838;DHT22;27511;52.042;5.178;2023-09-19T16:06:28;21.20;99.90
41838;DHT22;27511;52.042;5.178;2023-09-19T16:08:56;21.30;99.90
41838;DHT22;27511;52.042;5.178;2023-09-19T16:11:24;21.30;99.90
41838;DHT22;27511;52.042;5.178;2023-09-19T16:13:50;21.20;99.90
41838;DHT22;27511;52.042;5.178;2023-09-19T16:16:18;21.20;99.90
41838;DHT22;27511;52.042;5.178;2023-09-19T16:18:49;21.10;99.90
41838;DHT22;27511;52.042;5.178;2023-09-19T16:21:16;21.10;99.90
41838;DHT22;27511;52.042;5.178;2023-09-19T16:23:47;21.10;99.90
41838;DHT22;27511;52.042;5.178;2023-09-19T16:26:13;21.00;99.90
41838;DHT22;27511;52.042;5.178;2023-09-19T16:28:40;20.90;99.90